createdAt,value
2024-01-11T00:00:33.576Z,45.84
2024-01-11T00:02:35.952Z,45.89
2024-01-11T00:04:41.244Z,46.05
2024-01-11T00:06:45.670Z,45.97
2024-01-11T00:08:49.241Z,46.00
2024-01-11T00:10:53.881Z,45.97
2024-01-11T00:12:56.411Z,46.06
2024-01-11T00:15:02.364Z,45.90
2024-01-11T00:17:06.264Z,46.12
2024-01-11T00:19:09.588Z,45.85
2024-01-11T00:21:12.045Z,45.82
2024-01-11T00:23:15.476Z,46.12
2024-01-11T00:25:18.978Z,45.93
2024-01-11T00:27:23.710Z,45.83
2024-01-11T00:29:27.101Z,45.73
2024-01-11T00:31:30.422Z,45.88
2024-01-11T00:33:33.778Z,45.70
2024-01-11T00:35:37.102Z,45.75
2024-01-11T00:37:41.012Z,45.64
2024-01-11T00:39:44.947Z,45.62
2024-01-11T00:41:48.332Z,45.74
2024-01-11T00:43:53.017Z,45.69
2024-01-11T00:45:55.444Z,45.60
2024-01-11T00:47:58.761Z,45.64
2024-01-11T00:50:02.159Z,45.79
2024-01-11T00:52:06.214Z,45.68
2024-01-11T00:54:10.306Z,45.36
2024-01-11T00:56:18.867Z,45.47
2024-01-11T00:58:22.171Z,45.38
2024-01-11T01:00:26.692Z,45.29
2024-01-11T01:02:30.347Z,45.23
2024-01-11T01:04:33.872Z,45.45
2024-01-11T01:06:36.134Z,45.50
2024-01-11T01:08:39.368Z,45.41
2024-01-11T01:10:41.599Z,45.56
2024-01-11T01:12:44.750Z,45.46
2024-01-11T01:14:47.887Z,45.36
2024-01-11T01:16:52.485Z,45.58
2024-01-11T01:18:55.938Z,45.45
2024-01-11T01:20:59.375Z,45.31
2024-01-11T01:23:03.214Z,45.50
2024-01-11T01:25:07.586Z,45.36
2024-01-11T01:27:11.046Z,45.37
2024-01-11T01:29:15.164Z,45.43
2024-01-11T01:31:17.574Z,45.27
2024-01-11T01:33:22.275Z,45.37
2024-01-11T01:35:25.615Z,45.34
2024-01-11T01:37:28.864Z,45.22
2024-01-11T01:39:32.172Z,45.36
2024-01-11T01:41:35.537Z,45.11
2024-01-11T01:43:38.942Z,45.16
2024-01-11T01:45:42.289Z,45.07
2024-01-11T01:47:46.641Z,45.30
2024-01-11T01:49:51.361Z,45.25
2024-01-11T01:51:55.860Z,45.43
2024-01-11T01:54:00.891Z,45.27
2024-01-11T01:56:06.197Z,45.31
2024-01-11T01:58:08.534Z,45.34
2024-01-11T02:00:14.600Z,45.13
2024-01-11T02:02:18.526Z,45.15
2024-01-11T02:04:24.037Z,45.26
2024-01-11T02:06:35.234Z,45.12
2024-01-11T02:08:42.138Z,45.16
2024-01-11T02:10:45.111Z,45.08
2024-01-11T02:12:49.012Z,45.08
2024-01-11T02:14:51.643Z,45.01
2024-01-11T02:16:54.955Z,45.18
2024-01-11T02:18:57.405Z,45.10
2024-01-11T02:21:00.752Z,45.12
2024-01-11T02:23:08.641Z,45.22
2024-01-11T02:25:13.217Z,45.19
2024-01-11T02:27:16.396Z,45.13
2024-01-11T02:29:19.705Z,45.13
2024-01-11T02:31:23.294Z,45.01
2024-01-11T02:33:26.964Z,44.89
2024-01-11T02:35:30.814Z,44.84
2024-01-11T02:37:34.306Z,44.84
2024-01-11T02:39:37.759Z,44.66
2024-01-11T02:41:42.673Z,44.70
2024-01-11T02:43:50.131Z,44.76
2024-01-11T02:45:57.424Z,44.61
2024-01-11T02:48:00.955Z,44.57
2024-01-11T02:50:04.516Z,44.43
2024-01-11T02:52:08.166Z,44.63
2024-01-11T02:54:11.520Z,44.57
2024-01-11T02:56:13.906Z,44.50
2024-01-11T02:58:19.536Z,44.51
2024-01-11T03:00:22.738Z,44.54
2024-01-11T03:02:25.329Z,44.51
2024-01-11T03:04:28.531Z,44.69
2024-01-11T03:06:30.891Z,44.48
2024-01-11T03:08:34.390Z,44.54
2024-01-11T03:10:39.895Z,44.31
2024-01-11T03:12:43.193Z,44.29
2024-01-11T03:14:47.862Z,44.34
2024-01-11T03:16:51.063Z,44.50
2024-01-11T03:18:54.419Z,44.48
2024-01-11T03:20:57.703Z,44.44
2024-01-11T03:23:01.013Z,44.43
2024-01-11T03:25:04.505Z,44.36
2024-01-11T03:27:07.915Z,44.47
2024-01-11T03:29:11.200Z,44.63
2024-01-11T03:31:16.006Z,44.61
2024-01-11T03:33:19.520Z,44.61
2024-01-11T03:35:23.299Z,44.40
2024-01-11T03:37:26.525Z,44.55
2024-01-11T03:39:29.764Z,44.40
2024-01-11T03:41:32.987Z,44.47
2024-01-11T03:43:36.389Z,44.26
2024-01-11T03:45:39.608Z,44.36
2024-01-11T03:47:45.208Z,44.19
2024-01-11T03:49:48.509Z,44.29
2024-01-11T03:51:50.837Z,44.25
2024-01-11T03:53:54.166Z,44.46
2024-01-11T03:55:57.879Z,44.55
2024-01-11T03:58:01.239Z,44.43
2024-01-11T04:00:10.058Z,44.46
2024-01-11T04:02:15.171Z,44.36
2024-01-11T04:04:19.764Z,44.17
2024-01-11T04:06:22.971Z,44.33
2024-01-11T04:08:26.441Z,44.33
2024-01-11T04:10:29.676Z,44.34
2024-01-11T04:12:33.057Z,44.36
2024-01-11T04:14:40.287Z,44.44
2024-01-11T04:16:44.285Z,44.49
2024-01-11T04:18:47.560Z,44.18
2024-01-11T04:20:52.234Z,44.26
2024-01-11T04:22:55.589Z,44.33
2024-01-11T04:24:58.897Z,44.21
2024-01-11T04:27:02.186Z,44.16
2024-01-11T04:29:05.565Z,44.35
2024-01-11T04:31:09.746Z,44.18
2024-01-11T04:33:13.258Z,44.41
2024-01-11T04:35:16.727Z,44.34
2024-01-11T04:37:21.718Z,44.42
2024-01-11T04:39:25.017Z,44.30
2024-01-11T04:41:28.373Z,44.37
2024-01-11T04:43:30.627Z,44.52
2024-01-11T04:45:34.775Z,44.56
2024-01-11T04:47:39.058Z,44.86
2024-01-11T04:49:42.384Z,44.71
2024-01-11T04:51:45.656Z,44.72
2024-01-11T04:53:50.445Z,44.82
2024-01-11T04:55:53.644Z,44.67
2024-01-11T04:57:56.985Z,44.77
2024-01-11T05:00:02.453Z,44.57
2024-01-11T05:02:07.337Z,44.59
2024-01-11T05:04:11.279Z,44.64
2024-01-11T05:06:17.717Z,44.34
2024-01-11T05:08:21.062Z,44.41
2024-01-11T05:10:26.580Z,44.55
2024-01-11T05:12:29.854Z,44.46
2024-01-11T05:14:33.228Z,44.49
2024-01-11T05:16:36.801Z,44.40
2024-01-11T05:18:40.070Z,44.38
2024-01-11T05:20:43.710Z,44.63
2024-01-11T05:22:47.121Z,44.70
2024-01-11T05:24:50.408Z,44.75
2024-01-11T05:26:55.867Z,44.81
2024-01-11T05:28:59.143Z,44.77
2024-01-11T05:31:01.622Z,44.59
2024-01-11T05:33:05.618Z,44.64
2024-01-11T05:35:11.431Z,44.72
2024-01-11T05:37:16.440Z,44.61
2024-01-11T05:39:19.721Z,44.44
2024-01-11T05:41:22.958Z,44.51
2024-01-11T05:43:27.738Z,44.38
2024-01-11T05:45:40.839Z,44.45
2024-01-11T05:47:50.874Z,44.39
2024-01-11T05:49:54.954Z,44.48
2024-01-11T05:51:58.388Z,44.47
2024-01-11T05:54:01.644Z,44.49
2024-01-11T05:56:10.713Z,44.47
2024-01-11T05:58:14.161Z,44.31
2024-01-11T06:00:20.355Z,44.32
2024-01-11T06:02:24.810Z,44.24
2024-01-11T06:04:28.240Z,44.28
2024-01-11T06:06:31.483Z,44.35
2024-01-11T06:08:34.809Z,44.26
2024-01-11T06:10:37.057Z,44.19
2024-01-11T06:12:40.359Z,44.33
2024-01-11T06:14:43.675Z,44.34
2024-01-11T06:16:48.456Z,44.04
2024-01-11T06:18:52.844Z,44.28
2024-01-11T06:20:56.302Z,44.09
2024-01-11T06:22:58.560Z,43.96
2024-01-11T06:25:02.676Z,44.39
2024-01-11T06:27:07.693Z,44.47
2024-01-11T06:29:10.990Z,44.07
2024-01-11T06:31:14.534Z,44.15
2024-01-11T06:33:19.281Z,44.16
2024-01-11T06:35:22.496Z,44.11
2024-01-11T06:37:25.805Z,44.15
2024-01-11T06:39:29.075Z,44.13
2024-01-11T06:41:32.513Z,44.04
2024-01-11T06:43:36.061Z,43.97
2024-01-11T06:45:40.070Z,44.04
2024-01-11T06:47:43.393Z,44.09
2024-01-11T06:49:48.360Z,43.81
2024-01-11T06:51:50.752Z,43.98
2024-01-11T06:53:54.230Z,44.03
2024-01-11T06:55:57.560Z,43.95
2024-01-11T06:58:02.944Z,44.18
2024-01-11T07:00:08.282Z,44.11
2024-01-11T07:02:11.601Z,44.05
2024-01-11T07:04:14.959Z,44.12
2024-01-11T07:06:19.820Z,44.02
2024-01-11T07:08:23.357Z,44.46
2024-01-11T07:10:26.744Z,44.50
2024-01-11T07:12:29.944Z,44.58
2024-01-11T07:14:33.328Z,44.65
2024-01-11T07:16:36.606Z,44.59
2024-01-11T07:18:39.920Z,44.77
2024-01-11T07:20:43.395Z,44.84
2024-01-11T07:22:48.045Z,44.55
2024-01-11T07:24:51.285Z,44.68
2024-01-11T07:26:55.033Z,44.93
2024-01-11T07:28:58.692Z,44.81
2024-01-11T07:31:03.140Z,44.69
2024-01-11T07:33:06.920Z,44.66
2024-01-11T07:35:14.275Z,44.90
2024-01-11T07:37:19.828Z,44.96
2024-01-11T07:39:25.574Z,45.00
2024-01-11T07:41:28.986Z,44.75
2024-01-11T07:43:44.990Z,45.06
2024-01-11T07:45:52.736Z,44.78
2024-01-11T07:47:56.045Z,45.08
2024-01-11T07:49:59.329Z,45.10
2024-01-11T07:52:02.631Z,44.92
2024-01-11T07:54:06.200Z,45.10
2024-01-11T07:56:11.850Z,45.10
2024-01-11T07:58:16.192Z,45.17
2024-01-11T08:00:19.881Z,44.83
2024-01-11T08:02:24.272Z,45.05
2024-01-11T08:04:27.640Z,44.88
2024-01-11T08:06:33.267Z,45.19
2024-01-11T08:08:37.529Z,45.26
2024-01-11T08:10:40.865Z,45.19
2024-01-11T08:12:45.710Z,45.14
2024-01-11T08:14:48.673Z,44.96
2024-01-11T08:16:51.854Z,45.16
2024-01-11T08:18:55.515Z,44.92
2024-01-11T08:20:59.760Z,44.89
2024-01-11T08:23:04.678Z,44.92
2024-01-11T08:25:08.039Z,44.93
2024-01-11T08:27:11.344Z,44.99
2024-01-11T08:29:16.717Z,44.83
2024-01-11T08:31:20.010Z,45.05
2024-01-11T08:33:23.427Z,45.00
2024-01-11T08:35:27.428Z,44.99
2024-01-11T08:37:29.721Z,44.93
2024-01-11T08:39:32.950Z,45.10
2024-01-11T08:41:37.837Z,44.88
2024-01-11T08:43:41.961Z,44.86
2024-01-11T08:45:45.916Z,44.93
2024-01-11T08:47:49.377Z,45.03
2024-01-11T08:49:51.795Z,45.06
2024-01-11T08:51:54.992Z,45.15
2024-01-11T08:53:58.581Z,45.03
2024-01-11T08:56:02.706Z,45.15
2024-01-11T08:58:06.124Z,45.13
2024-01-11T09:00:10.565Z,44.99
2024-01-11T09:02:18.473Z,45.08
2024-01-11T09:04:23.542Z,45.11
2024-01-11T09:06:27.232Z,45.02
2024-01-11T09:08:31.869Z,45.06
2024-01-11T09:10:35.841Z,45.07
2024-01-11T09:12:39.380Z,44.95
2024-01-11T09:14:41.915Z,44.95
2024-01-11T09:16:45.980Z,44.89
2024-01-11T09:18:50.691Z,45.04
2024-01-11T09:20:54.940Z,45.14
2024-01-11T09:22:58.374Z,45.24
2024-01-11T09:25:01.590Z,45.14
2024-01-11T09:27:05.374Z,45.09
2024-01-11T09:29:08.690Z,45.02
2024-01-11T09:31:12.441Z,45.01
2024-01-11T09:33:15.993Z,45.02
2024-01-11T09:35:20.764Z,44.99
2024-01-11T09:37:23.115Z,45.19
2024-01-11T09:39:26.906Z,45.04
2024-01-11T09:41:32.895Z,45.00
2024-01-11T09:43:36.865Z,44.84
2024-01-11T09:45:40.326Z,44.92
2024-01-11T09:47:43.285Z,44.92
2024-01-11T09:49:51.978Z,45.10
2024-01-11T09:51:58.005Z,44.93
2024-01-11T09:54:02.086Z,45.05
2024-01-11T09:56:10.207Z,45.20
2024-01-11T09:58:14.995Z,45.03
2024-01-11T10:00:24.404Z,44.97
2024-01-11T10:02:28.124Z,44.99
2024-01-11T10:04:31.907Z,45.08
2024-01-11T10:06:38.255Z,44.98
2024-01-11T10:08:44.726Z,45.21
2024-01-11T10:10:49.312Z,44.97
2024-01-11T10:12:52.934Z,44.90
2024-01-11T10:14:56.741Z,44.84
2024-01-11T10:16:59.196Z,45.04
2024-01-11T10:19:02.764Z,45.11
2024-01-11T10:21:06.860Z,44.83
2024-01-11T10:23:11.571Z,44.91
2024-01-11T10:25:19.168Z,44.94
2024-01-11T10:27:22.776Z,44.97
2024-01-11T10:29:33.122Z,44.94
2024-01-11T10:31:36.434Z,45.01
2024-01-11T10:33:39.052Z,45.06
2024-01-11T10:35:43.374Z,45.02
2024-01-11T10:37:47.223Z,45.40
2024-01-11T10:39:52.911Z,45.18
2024-01-11T10:42:08.635Z,45.39
2024-01-11T10:44:21.613Z,45.45
2024-01-11T10:46:28.725Z,45.59
2024-01-11T10:48:34.088Z,45.30
2024-01-11T10:50:41.066Z,45.24
2024-01-11T10:52:55.669Z,45.23
2024-01-11T10:55:01.469Z,45.22
2024-01-11T10:57:08.739Z,45.29
2024-01-11T10:59:14.661Z,45.21
2024-01-11T11:01:20.045Z,45.18
2024-01-11T11:03:26.718Z,45.21
2024-01-11T11:05:31.226Z,45.22
2024-01-11T11:07:37.676Z,45.32
2024-01-11T11:09:45.311Z,45.39
2024-01-11T11:11:49.615Z,45.36
2024-01-11T11:13:56.415Z,45.23
2024-01-11T11:16:01.981Z,45.20
2024-01-11T11:18:08.394Z,45.33
2024-01-11T11:20:14.676Z,45.25
2024-01-11T11:22:20.501Z,45.21
2024-01-11T11:24:24.063Z,45.27
2024-01-11T11:26:30.000Z,45.21
2024-01-11T11:28:35.930Z,45.25
2024-01-11T11:30:44.213Z,45.35
2024-01-11T11:32:48.571Z,45.42
2024-01-11T11:34:53.771Z,45.38
2024-01-11T11:36:58.599Z,45.18
2024-01-11T11:39:03.779Z,45.39
2024-01-11T11:41:09.125Z,45.13
2024-01-11T11:43:12.358Z,45.10
2024-01-11T11:45:27.038Z,44.93
2024-01-11T11:47:38.560Z,45.13
2024-01-11T11:50:01.893Z,45.07
2024-01-11T11:52:05.833Z,45.15
2024-01-11T11:54:11.856Z,45.26
2024-01-11T11:56:17.830Z,45.16
2024-01-11T11:58:21.464Z,45.32
2024-01-11T12:00:25.713Z,45.37
2024-01-11T12:02:29.646Z,45.46
2024-01-11T12:04:34.739Z,45.39
2024-01-11T12:06:38.196Z,45.61
2024-01-11T12:08:44.554Z,45.71
2024-01-11T12:10:48.264Z,45.64
2024-01-11T12:12:53.674Z,45.70
2024-01-11T12:14:57.102Z,45.40
2024-01-11T12:17:02.925Z,45.41
2024-01-11T12:19:08.588Z,45.46
2024-01-11T12:21:13.408Z,45.39
2024-01-11T12:23:18.840Z,45.24
2024-01-11T12:25:23.587Z,45.29
2024-01-11T12:27:27.493Z,45.23
2024-01-11T12:29:39.832Z,45.20
2024-01-11T12:31:48.133Z,45.22
2024-01-11T12:33:52.410Z,45.41
2024-01-11T12:35:55.206Z,45.33
2024-01-11T12:38:03.098Z,45.31
2024-01-11T12:40:11.623Z,45.31
2024-01-11T12:42:15.904Z,45.42
2024-01-11T12:44:21.253Z,45.50
2024-01-11T12:46:25.202Z,45.43
2024-01-11T12:48:28.998Z,45.31
2024-01-11T12:50:34.401Z,45.36
2024-01-11T12:52:37.747Z,45.31
2024-01-11T12:54:42.488Z,45.35
2024-01-11T12:56:46.730Z,45.52
2024-01-11T12:58:50.249Z,45.35
2024-01-11T13:00:53.200Z,45.33
2024-01-11T13:02:57.535Z,45.20
2024-01-11T13:05:04.020Z,45.28
2024-01-11T13:07:08.182Z,45.07
2024-01-11T13:09:11.811Z,45.18
2024-01-11T13:11:18.397Z,45.34
2024-01-11T13:13:23.685Z,45.06
2024-01-11T13:15:27.655Z,45.27
2024-01-11T13:17:31.022Z,45.29
2024-01-11T13:19:35.951Z,45.15
2024-01-11T13:21:39.888Z,45.32
2024-01-11T13:23:43.833Z,45.35
2024-01-11T13:25:48.905Z,45.31
2024-01-11T13:27:54.351Z,45.17
2024-01-11T13:29:57.767Z,45.24
2024-01-11T13:32:03.723Z,44.99
2024-01-11T13:34:09.034Z,45.12
2024-01-11T13:36:11.456Z,45.33
2024-01-11T13:38:14.744Z,45.38
2024-01-11T13:40:17.107Z,45.42
2024-01-11T13:42:20.432Z,45.38
2024-01-11T13:44:25.508Z,45.31
2024-01-11T13:46:29.235Z,45.42
2024-01-11T13:48:33.237Z,45.44
2024-01-11T13:50:35.959Z,45.43
2024-01-11T13:52:39.329Z,45.40
2024-01-11T13:54:42.755Z,45.50
2024-01-11T13:56:46.142Z,45.45
2024-01-11T13:58:49.449Z,45.67
2024-01-11T14:00:55.388Z,45.55
2024-01-11T14:02:59.700Z,45.63
2024-01-11T14:05:04.210Z,45.52
2024-01-11T14:07:09.781Z,45.63
2024-01-11T14:09:13.827Z,45.61
2024-01-11T14:11:17.180Z,45.91
2024-01-11T14:13:19.562Z,45.69
2024-01-11T14:15:23.433Z,45.82
2024-01-11T14:17:28.674Z,45.77
2024-01-11T14:19:32.061Z,45.59
2024-01-11T14:21:35.954Z,45.56
2024-01-11T14:23:39.381Z,45.48
2024-01-11T14:25:43.609Z,45.52
2024-01-11T14:27:47.052Z,45.61
2024-01-11T14:29:51.236Z,45.55
2024-01-11T14:31:54.601Z,45.75
2024-01-11T14:34:01.077Z,45.81
2024-01-11T14:36:04.923Z,45.89
2024-01-11T14:38:08.278Z,45.65
2024-01-11T14:40:12.837Z,45.70
2024-01-11T14:42:16.120Z,45.82
2024-01-11T14:44:19.416Z,45.75
2024-01-11T14:46:23.549Z,45.79
2024-01-11T14:48:27.114Z,45.83
2024-01-11T14:50:31.778Z,45.96
2024-01-11T14:52:35.034Z,45.81
2024-01-11T14:54:38.282Z,45.93
2024-01-11T14:56:41.711Z,46.01
2024-01-11T14:58:44.976Z,46.03
2024-01-11T15:00:48.926Z,45.89
2024-01-11T15:02:52.809Z,46.03
2024-01-11T15:04:56.189Z,46.03
2024-01-11T15:07:00.855Z,46.09
2024-01-11T15:09:06.016Z,46.30
2024-01-11T15:11:12.161Z,46.18
2024-01-11T15:13:14.601Z,46.21
2024-01-11T15:15:19.362Z,46.26
2024-01-11T15:17:22.160Z,46.29
2024-01-11T15:19:25.499Z,46.47
2024-01-11T15:21:29.010Z,46.37
2024-01-11T15:23:35.784Z,46.52
2024-01-11T15:25:39.199Z,46.35
2024-01-11T15:27:41.460Z,46.29
2024-01-11T15:29:44.888Z,46.29
2024-01-11T15:31:49.132Z,46.33
2024-01-11T15:33:52.605Z,46.49
2024-01-11T15:35:57.656Z,46.56
2024-01-11T15:38:01.012Z,46.46
2024-01-11T15:40:07.543Z,46.66
2024-01-11T15:42:10.796Z,46.58
2024-01-11T15:44:14.182Z,46.56
2024-01-11T15:46:17.709Z,46.56
2024-01-11T15:48:21.063Z,46.65
2024-01-11T15:50:24.529Z,46.61
2024-01-11T15:52:27.975Z,46.46
2024-01-11T15:54:31.434Z,46.51
2024-01-11T15:56:35.994Z,46.57
2024-01-11T15:58:40.486Z,46.58
2024-01-11T16:00:44.795Z,46.66
2024-01-11T16:02:48.996Z,46.61
2024-01-11T16:04:52.286Z,46.61
2024-01-11T16:06:56.074Z,46.52
2024-01-11T16:08:59.624Z,46.62
2024-01-11T16:11:02.068Z,46.70
2024-01-11T16:13:07.137Z,46.62
2024-01-11T16:15:12.043Z,46.77
2024-01-11T16:17:15.803Z,46.89
2024-01-11T16:19:18.861Z,46.86
2024-01-11T16:21:21.991Z,46.80
2024-01-11T16:23:25.380Z,46.69
2024-01-11T16:25:28.978Z,46.81
2024-01-11T16:27:32.536Z,46.77
2024-01-11T16:29:38.497Z,46.87
2024-01-11T16:31:40.887Z,46.78
2024-01-11T16:33:44.107Z,46.89
2024-01-11T16:35:55.722Z,46.98
2024-01-11T16:38:04.470Z,46.94
2024-01-11T16:40:11.105Z,47.18
2024-01-11T16:42:14.445Z,46.95
2024-01-11T16:44:17.981Z,47.13
2024-01-11T16:46:23.502Z,47.20
2024-01-11T16:48:28.327Z,47.12
2024-01-11T16:50:32.717Z,47.18
2024-01-11T16:52:36.438Z,47.18
2024-01-11T16:54:39.687Z,47.14
2024-01-11T16:56:43.799Z,47.03
2024-01-11T16:58:47.179Z,47.20
2024-01-11T17:00:50.651Z,47.18
2024-01-11T17:02:55.464Z,47.21
2024-01-11T17:04:58.796Z,47.06
2024-01-11T17:07:01.310Z,47.11
2024-01-11T17:09:06.073Z,47.07
2024-01-11T17:11:09.757Z,47.16
2024-01-11T17:13:13.208Z,47.26
2024-01-11T17:15:17.551Z,47.03
2024-01-11T17:17:21.898Z,47.20
2024-01-11T17:19:26.541Z,47.36
2024-01-11T17:21:31.872Z,47.27
2024-01-11T17:23:35.404Z,47.40
2024-01-11T17:25:38.811Z,47.38
2024-01-11T17:27:42.193Z,47.40
2024-01-11T17:29:45.506Z,47.49
2024-01-11T17:31:48.832Z,47.50
2024-01-11T17:33:52.269Z,47.51
2024-01-11T17:35:57.137Z,47.64
2024-01-11T17:38:00.510Z,47.58
2024-01-11T17:40:04.420Z,47.64
2024-01-11T17:42:09.112Z,47.63
2024-01-11T17:44:12.408Z,47.47
2024-01-11T17:46:21.736Z,47.61
2024-01-11T17:48:25.144Z,47.59
2024-01-11T17:50:28.736Z,47.50
2024-01-11T17:52:33.373Z,47.62
2024-01-11T17:54:36.833Z,47.63
2024-01-11T17:56:42.537Z,47.80
2024-01-11T17:58:46.031Z,47.57
2024-01-11T18:00:49.479Z,47.64
2024-01-11T18:02:53.112Z,47.66
2024-01-11T18:04:56.436Z,47.74
2024-01-11T18:06:58.983Z,47.71
2024-01-11T18:09:04.648Z,47.75
2024-01-11T18:11:08.022Z,47.85
2024-01-11T18:13:11.372Z,47.64
2024-01-11T18:15:15.098Z,47.83
2024-01-11T18:17:18.565Z,47.81
2024-01-11T18:19:22.423Z,47.85
2024-01-11T18:21:25.779Z,47.98
2024-01-11T18:23:29.718Z,47.94
2024-01-11T18:25:34.371Z,47.81
2024-01-11T18:27:37.771Z,47.83
2024-01-11T18:29:42.826Z,47.81
2024-01-11T18:31:48.776Z,47.88
2024-01-11T18:33:53.609Z,47.95
2024-01-11T18:35:57.016Z,47.82
2024-01-11T18:38:00.597Z,48.03
2024-01-11T18:40:06.024Z,47.97
2024-01-11T18:42:13.985Z,48.06
2024-01-11T18:44:17.681Z,48.10
2024-01-11T18:46:22.036Z,48.02
2024-01-11T18:48:25.433Z,47.94
2024-01-11T18:50:29.693Z,47.95
2024-01-11T18:52:33.066Z,48.23
2024-01-11T18:54:37.413Z,47.99
2024-01-11T18:56:40.926Z,48.03
2024-01-11T18:58:46.028Z,48.17
2024-01-11T19:00:49.545Z,48.03
2024-01-11T19:02:53.539Z,48.07
2024-01-11T19:04:57.070Z,48.17
2024-01-11T19:07:00.640Z,48.02
2024-01-11T19:09:05.200Z,48.15
2024-01-11T19:11:08.923Z,48.06
2024-01-11T19:13:12.208Z,48.06
2024-01-11T19:15:17.154Z,48.08
2024-01-11T19:17:20.421Z,48.12
2024-01-11T19:19:24.696Z,48.03
2024-01-11T19:21:29.088Z,48.13
2024-01-11T19:23:32.495Z,48.17
2024-01-11T19:25:35.964Z,48.20
2024-01-11T19:27:39.212Z,48.04
2024-01-11T19:29:42.827Z,48.27
2024-01-11T19:31:48.754Z,48.17
2024-01-11T19:33:51.246Z,48.17
2024-01-11T19:35:57.141Z,48.24
2024-01-11T19:38:01.602Z,48.21
2024-01-11T19:40:06.008Z,48.25
2024-01-11T19:42:09.380Z,48.35
2024-01-11T19:44:12.737Z,48.15
2024-01-11T19:46:21.452Z,48.27
2024-01-11T19:48:26.157Z,48.36
2024-01-11T19:50:28.721Z,48.44
2024-01-11T19:52:32.677Z,48.37
2024-01-11T19:54:37.433Z,48.45
2024-01-11T19:56:40.740Z,48.57
2024-01-11T19:58:44.170Z,48.74
2024-01-11T20:00:47.479Z,48.52
2024-01-11T20:02:51.008Z,48.56
2024-01-11T20:04:56.558Z,48.69
2024-01-11T20:06:59.981Z,48.73
2024-01-11T20:09:02.448Z,48.75
2024-01-11T20:11:07.887Z,48.97
2024-01-11T20:13:11.243Z,48.79
2024-01-11T20:15:15.000Z,48.65
2024-01-11T20:17:19.202Z,48.71
2024-01-11T20:19:22.936Z,48.63
2024-01-11T20:21:28.519Z,48.63
2024-01-11T20:23:30.943Z,48.44
2024-01-11T20:25:34.606Z,48.39
2024-01-11T20:27:38.013Z,48.35
2024-01-11T20:29:42.526Z,48.46
2024-01-11T20:31:46.135Z,48.44
2024-01-11T20:33:48.943Z,48.45
2024-01-11T20:35:52.502Z,48.42
2024-01-11T20:37:57.471Z,48.44
2024-01-11T20:40:01.454Z,48.51
2024-01-11T20:42:05.323Z,48.47
2024-01-11T20:44:08.688Z,48.38
2024-01-11T20:46:12.842Z,48.37
2024-01-11T20:48:18.108Z,48.38
2024-01-11T20:50:23.315Z,48.42
2024-01-11T20:52:27.369Z,48.43
2024-01-11T20:54:31.980Z,48.42
2024-01-11T20:56:35.574Z,48.39
2024-01-11T20:58:38.890Z,48.41
2024-01-11T21:00:42.741Z,48.47
2024-01-11T21:02:46.280Z,48.38
2024-01-11T21:04:48.823Z,48.41
2024-01-11T21:06:52.301Z,48.70
2024-01-11T21:08:55.866Z,48.56
2024-01-11T21:11:00.640Z,48.57
2024-01-11T21:13:03.948Z,48.63
2024-01-11T21:15:08.961Z,48.55
2024-01-11T21:17:12.431Z,48.74
2024-01-11T21:19:15.850Z,48.69
2024-01-11T21:21:23.543Z,48.67
2024-01-11T21:23:26.899Z,48.54
2024-01-11T21:25:30.352Z,48.71
2024-01-11T21:27:35.961Z,48.68
2024-01-11T21:29:39.497Z,48.58
2024-01-11T21:31:42.807Z,48.64
2024-01-11T21:33:45.404Z,48.75
2024-01-11T21:35:48.923Z,48.75
2024-01-11T21:37:52.308Z,48.68
2024-01-11T21:39:57.436Z,48.63
2024-01-11T21:42:00.957Z,48.73
2024-01-11T21:44:05.927Z,48.77
2024-01-11T21:46:09.532Z,48.74
2024-01-11T21:48:13.949Z,48.66
2024-01-11T21:50:17.880Z,48.95
2024-01-11T21:52:23.031Z,48.87
2024-01-11T21:54:26.338Z,48.82
2024-01-11T21:56:31.552Z,48.78
2024-01-11T21:58:35.693Z,48.83
2024-01-11T22:00:41.381Z,48.92
2024-01-11T22:02:44.873Z,48.77
2024-01-11T22:04:48.213Z,48.94
2024-01-11T22:06:51.832Z,48.70
2024-01-11T22:08:59.001Z,48.86
2024-01-11T22:11:02.829Z,48.89
2024-01-11T22:13:07.435Z,48.78
2024-01-11T22:15:12.375Z,48.81
2024-01-11T22:17:17.240Z,48.69
2024-01-11T22:19:21.008Z,48.84
2024-01-11T22:21:25.275Z,49.04
2024-01-11T22:23:29.496Z,48.85
2024-01-11T22:25:32.917Z,48.96
2024-01-11T22:27:36.259Z,48.87
2024-01-11T22:29:39.546Z,48.86
2024-01-11T22:31:43.014Z,49.01
2024-01-11T22:33:47.051Z,49.04
2024-01-11T22:35:50.793Z,48.90
2024-01-11T22:37:54.305Z,49.08
2024-01-11T22:39:56.803Z,49.04
2024-01-11T22:42:02.159Z,49.10
2024-01-11T22:44:06.572Z,49.10
2024-01-11T22:46:09.931Z,48.93
2024-01-11T22:48:13.460Z,49.12
2024-01-11T22:50:18.410Z,48.98
2024-01-11T22:52:22.466Z,48.97
2024-01-11T22:54:25.762Z,49.10
2024-01-11T22:56:31.074Z,48.96
2024-01-11T22:58:34.529Z,49.11
2024-01-11T23:00:39.104Z,48.90
2024-01-11T23:02:42.446Z,49.04
2024-01-11T23:04:46.207Z,49.01
2024-01-11T23:06:50.927Z,48.98
2024-01-11T23:08:54.339Z,49.14
2024-01-11T23:10:57.592Z,49.01
2024-01-11T23:13:00.959Z,49.10
2024-01-11T23:15:06.089Z,49.11
2024-01-11T23:17:09.605Z,49.10
2024-01-11T23:19:12.113Z,49.22
2024-01-11T23:21:15.462Z,49.10
2024-01-11T23:23:19.912Z,49.07
2024-01-11T23:25:23.230Z,48.97
2024-01-11T23:27:27.331Z,48.96
2024-01-11T23:29:30.828Z,49.17
2024-01-11T23:31:34.678Z,48.98
2024-01-11T23:33:38.174Z,49.01
2024-01-11T23:35:41.802Z,48.99
2024-01-11T23:37:46.501Z,49.00
2024-01-11T23:39:51.280Z,48.98
2024-01-11T23:41:55.716Z,48.97
2024-01-11T23:43:59.047Z,48.96
2024-01-11T23:46:02.351Z,49.10
2024-01-11T23:48:05.529Z,49.00
2024-01-11T23:50:09.633Z,48.99
2024-01-11T23:52:12.184Z,49.06
2024-01-11T23:54:15.741Z,49.08
2024-01-11T23:56:20.467Z,49.06
2024-01-11T23:58:23.840Z,49.06
